createdAt,value
2019-03-23T00:01:03.616Z,-0.40
2019-03-23T00:03:33.725Z,-0.40
2019-03-23T00:06:03.619Z,-0.30
2019-03-23T00:08:33.595Z,-0.30
2019-03-23T00:11:03.639Z,-0.40
2019-03-23T00:13:33.697Z,-0.40
2019-03-23T00:16:04.015Z,-0.50
2019-03-23T00:18:34.023Z,-0.50
2019-03-23T00:21:04.018Z,-0.60
2019-03-23T00:23:34.164Z,-0.60
2019-03-23T00:26:04.100Z,-0.60
2019-03-23T00:28:33.930Z,-0.70
2019-03-23T00:31:03.832Z,-0.60
2019-03-23T00:33:33.879Z,-0.60
2019-03-23T00:36:03.957Z,-0.60
2019-03-23T00:38:33.889Z,-0.60
2019-03-23T00:41:04.238Z,-0.60
2019-03-23T00:43:34.364Z,-0.60
2019-03-23T00:46:04.422Z,-0.70
2019-03-23T00:48:34.741Z,-0.70
2019-03-23T00:51:04.920Z,-0.70
2019-03-23T00:53:34.978Z,-0.70
2019-03-23T00:56:05.298Z,-0.80
2019-03-23T00:58:35.626Z,-0.80
2019-03-23T01:01:05.980Z,-0.70
2019-03-23T01:03:35.918Z,-0.80
2019-03-23T01:06:06.127Z,-0.80
2019-03-23T01:08:36.493Z,-0.80
2019-03-23T01:11:06.526Z,-0.90
2019-03-23T01:13:36.901Z,-0.90
2019-03-23T01:16:06.789Z,-0.90
2019-03-23T01:18:36.774Z,-0.90
2019-03-23T01:21:06.641Z,-0.90
2019-03-23T01:23:36.579Z,-1.00
2019-03-23T01:26:06.897Z,-1.00
2019-03-23T01:28:36.942Z,-1.00
2019-03-23T01:31:06.875Z,-1.10
2019-03-23T01:33:36.937Z,-1.10
2019-03-23T01:36:07.012Z,-1.10
2019-03-23T01:38:36.902Z,-1.10
2019-03-23T01:41:06.784Z,-1.20
2019-03-23T01:43:36.724Z,-1.10
2019-03-23T01:46:06.631Z,-1.10
2019-03-23T01:48:36.530Z,-1.20
2019-03-23T01:51:06.409Z,-1.20
2019-03-23T01:53:36.299Z,-1.20
2019-03-23T01:56:06.226Z,-1.20
2019-03-23T01:58:36.155Z,-1.30
2019-03-23T02:01:06.259Z,-1.30
2019-03-23T02:03:36.135Z,-1.40
2019-03-23T02:06:07.124Z,-1.40
2019-03-23T02:08:36.996Z,-1.40
2019-03-23T02:11:06.927Z,-1.40
2019-03-23T02:13:37.097Z,-1.40
2019-03-23T02:16:07.224Z,-1.40
2019-03-23T02:18:37.123Z,-1.40
2019-03-23T02:21:07.032Z,-1.40
2019-03-23T02:23:37.025Z,-1.40
2019-03-23T02:26:07.166Z,-1.50
2019-03-23T02:28:37.064Z,-1.50
2019-03-23T02:31:07.459Z,-1.50
2019-03-23T02:33:37.723Z,-1.50
2019-03-23T02:36:07.752Z,-1.50
2019-03-23T02:38:37.839Z,-1.50
2019-03-23T02:41:07.952Z,-1.60
2019-03-23T02:43:37.870Z,-1.60
2019-03-23T02:46:07.902Z,-1.70
2019-03-23T02:48:37.831Z,-1.70
2019-03-23T02:51:07.718Z,-1.70
2019-03-23T02:53:37.699Z,-1.70
2019-03-23T02:56:07.587Z,-1.70
2019-03-23T02:58:37.724Z,-1.70
2019-03-23T03:01:07.720Z,-1.70
2019-03-23T03:03:37.862Z,-1.80
2019-03-23T03:06:07.800Z,-1.80
2019-03-23T03:08:38.077Z,-1.80
2019-03-23T03:11:08.017Z,-1.80
2019-03-23T03:13:38.028Z,-1.80
2019-03-23T03:16:08.036Z,-1.80
2019-03-23T03:18:38.078Z,-1.90
2019-03-23T03:21:07.956Z,-1.90
2019-03-23T03:23:38.057Z,-1.90
2019-03-23T03:26:08.037Z,-1.90
2019-03-23T03:28:38.120Z,-2.00
2019-03-23T03:31:08.032Z,-1.90
2019-03-23T03:33:38.171Z,-1.90
2019-03-23T03:36:08.197Z,-1.90
2019-03-23T03:38:38.264Z,-2.00
2019-03-23T03:41:08.683Z,-2.00
2019-03-23T03:43:38.945Z,-2.00
2019-03-23T03:46:08.823Z,-2.00
2019-03-23T03:48:39.208Z,-2.10
2019-03-23T03:51:09.463Z,-2.20
2019-03-23T03:53:39.371Z,-2.20
2019-03-23T03:56:09.407Z,-2.20
2019-03-23T03:58:39.809Z,-2.20
2019-03-23T04:01:09.726Z,-2.20
2019-03-23T04:03:39.586Z,-2.20
2019-03-23T04:06:09.701Z,-2.20
2019-03-23T04:08:39.868Z,-2.20
2019-03-23T04:11:09.974Z,-2.20
2019-03-23T04:13:39.869Z,-2.30
2019-03-23T04:16:09.847Z,-2.30
2019-03-23T04:18:39.759Z,-2.30
2019-03-23T04:21:09.703Z,-2.30
2019-03-23T04:23:39.576Z,-2.30
2019-03-23T04:26:09.524Z,-2.40
2019-03-23T04:28:39.730Z,-2.40
2019-03-23T04:31:09.913Z,-2.50
2019-03-23T04:33:39.800Z,-2.40
2019-03-23T04:36:10.039Z,-2.50
2019-03-23T04:38:40.038Z,-2.40
2019-03-23T04:41:09.944Z,-2.50
2019-03-23T04:43:40.010Z,-2.50
2019-03-23T04:46:10.489Z,-2.40
2019-03-23T04:48:40.714Z,-2.40
2019-03-23T04:51:10.746Z,-2.40
2019-03-23T04:53:41.008Z,-2.40
2019-03-23T04:56:11.170Z,-2.40
2019-03-23T04:58:41.065Z,-2.40
2019-03-23T05:01:11.345Z,-2.50
2019-03-23T05:03:41.219Z,-2.50
2019-03-23T05:06:11.483Z,-2.50
2019-03-23T05:08:41.505Z,-2.50
2019-03-23T05:11:11.509Z,-2.60
2019-03-23T05:13:41.384Z,-2.60
2019-03-23T05:16:11.496Z,-2.60
2019-03-23T05:18:41.562Z,-2.60
2019-03-23T05:21:11.590Z,-2.60
2019-03-23T05:23:42.074Z,-2.60
2019-03-23T05:26:12.180Z,-2.70
2019-03-23T05:28:42.111Z,-2.70
2019-03-23T05:31:12.048Z,-2.70
2019-03-23T05:33:42.231Z,-2.60
2019-03-23T05:36:12.150Z,-2.60
2019-03-23T05:38:44.578Z,-2.60
2019-03-23T05:41:14.012Z,-2.50
2019-03-23T05:43:44.070Z,-2.60
2019-03-23T05:46:14.786Z,-2.60
2019-03-23T05:48:44.855Z,-2.60
2019-03-23T05:51:14.895Z,-2.60
2019-03-23T05:53:44.854Z,-2.50
2019-03-23T05:56:14.895Z,-2.50
2019-03-23T05:58:45.143Z,-2.50
2019-03-23T06:01:15.718Z,-2.40
2019-03-23T06:03:45.975Z,-2.40
2019-03-23T06:06:16.189Z,-2.40
2019-03-23T06:08:54.598Z,-2.40
2019-03-23T06:11:18.357Z,-2.20
2019-03-23T06:13:48.541Z,-2.20
2019-03-23T06:16:18.595Z,-2.20
2019-03-23T06:18:48.809Z,-2.10
2019-03-23T06:21:18.814Z,-2.00
2019-03-23T06:23:48.720Z,-2.00
2019-03-23T06:26:18.918Z,-1.80
2019-03-23T06:28:49.014Z,-1.70
2019-03-23T06:31:19.266Z,-1.70
2019-03-23T06:33:49.243Z,-1.60
2019-03-23T06:36:19.618Z,-1.50
2019-03-23T06:38:49.791Z,-1.40
2019-03-23T06:41:20.622Z,-1.30
2019-03-23T06:43:50.999Z,-1.20
2019-03-23T06:46:21.308Z,-1.10
2019-03-23T06:48:51.399Z,-1.00
2019-03-23T06:51:21.799Z,-0.90
2019-03-23T06:53:52.006Z,-0.70
2019-03-23T06:56:22.215Z,-0.60
2019-03-23T06:58:52.165Z,-0.50
2019-03-23T07:01:22.577Z,-0.30
2019-03-23T07:03:52.595Z,-0.20
2019-03-23T07:06:23.024Z,0.00
2019-03-23T07:08:53.149Z,0.10
2019-03-23T07:11:23.380Z,0.30
2019-03-23T07:13:53.331Z,0.40
2019-03-23T07:16:24.946Z,0.60
2019-03-23T07:18:55.285Z,0.80
2019-03-23T07:21:25.767Z,0.90
2019-03-23T07:23:55.826Z,1.10
2019-03-23T07:26:26.345Z,1.20
2019-03-23T07:28:56.568Z,1.40
2019-03-23T07:31:26.580Z,1.60
2019-03-23T07:33:56.752Z,1.80
2019-03-23T07:36:26.765Z,1.90
2019-03-23T07:38:56.791Z,2.10
2019-03-23T07:41:30.773Z,2.30
2019-03-23T07:44:01.179Z,2.50
2019-03-23T07:46:31.366Z,2.70
2019-03-23T07:49:01.511Z,2.90
2019-03-23T07:51:31.416Z,3.10
2019-03-23T07:54:02.719Z,3.30
2019-03-23T07:56:33.083Z,3.60
2019-03-23T07:59:03.159Z,3.90
2019-03-23T08:01:33.236Z,4.00
2019-03-23T08:04:03.660Z,4.20
2019-03-23T08:06:33.566Z,4.30
2019-03-23T08:09:04.988Z,4.50
2019-03-23T08:11:35.022Z,4.60
2019-03-23T08:14:05.107Z,4.70
2019-03-23T08:16:35.363Z,4.70
2019-03-23T08:19:05.798Z,4.90
2019-03-23T08:21:35.683Z,5.10
2019-03-23T08:24:05.996Z,5.20
2019-03-23T08:26:35.977Z,5.40
2019-03-23T08:29:05.991Z,5.50
2019-03-23T08:31:35.933Z,5.70
2019-03-23T08:34:06.196Z,5.80
2019-03-23T08:36:36.151Z,6.00
2019-03-23T08:39:07.199Z,6.20
2019-03-23T08:41:37.318Z,6.40
2019-03-23T08:44:07.388Z,6.50
2019-03-23T08:46:37.407Z,6.70
2019-03-23T08:49:07.738Z,6.90
2019-03-23T08:51:37.918Z,7.10
2019-03-23T08:54:07.910Z,7.30
2019-03-23T08:56:38.056Z,7.50
2019-03-23T08:59:07.982Z,7.70
2019-03-23T09:01:38.309Z,7.90
2019-03-23T09:04:08.421Z,8.00
2019-03-23T09:06:38.842Z,8.20
2019-03-23T09:09:08.884Z,8.40
2019-03-23T09:11:39.122Z,8.60
2019-03-23T09:14:09.655Z,8.80
2019-03-23T09:16:39.622Z,9.00
2019-03-23T09:19:09.750Z,9.30
2019-03-23T09:21:40.096Z,9.40
2019-03-23T09:24:10.073Z,9.70
2019-03-23T10:16:21.147Z,13.10
2019-03-23T10:18:51.092Z,13.20
2019-03-23T10:21:21.054Z,13.40
2019-03-23T10:23:51.000Z,13.50
2019-03-23T10:26:20.894Z,13.70
2019-03-23T10:28:51.162Z,13.80
2019-03-23T10:31:21.477Z,13.90
2019-03-23T10:33:51.460Z,14.00
2019-03-23T10:36:21.355Z,14.20
2019-03-23T10:38:51.569Z,14.30
2019-03-23T10:41:21.619Z,14.40
2019-03-23T10:43:51.657Z,14.60
2019-03-23T10:46:21.829Z,14.80
2019-03-23T10:48:52.267Z,14.90
2019-03-23T10:51:22.250Z,14.90
2019-03-23T10:53:52.731Z,14.90
2019-03-23T10:56:22.825Z,15.10
2019-03-23T10:58:52.946Z,15.00
2019-03-23T11:01:22.928Z,15.00
2019-03-23T11:03:52.902Z,15.10
2019-03-23T11:06:23.033Z,15.20
2019-03-23T11:08:53.435Z,15.30
2019-03-23T11:11:23.520Z,15.30
2019-03-23T11:13:53.715Z,15.30
2019-03-23T11:16:23.986Z,15.40
2019-03-23T11:18:54.213Z,15.40
2019-03-23T11:21:24.282Z,15.40
2019-03-23T11:23:54.336Z,15.50
2019-03-23T11:26:24.260Z,15.50
2019-03-23T11:28:54.326Z,15.50
2019-03-23T11:31:24.415Z,15.70
2019-03-23T11:33:54.537Z,15.70
2019-03-23T11:36:24.817Z,15.70
2019-03-23T11:38:55.025Z,15.80
2019-03-23T11:41:25.375Z,15.80
2019-03-23T11:43:55.316Z,15.80
2019-03-23T11:46:25.705Z,15.80
2019-03-23T11:48:55.664Z,15.90
2019-03-23T11:51:26.086Z,16.00
2019-03-23T11:53:56.166Z,16.00
2019-03-23T11:56:30.412Z,16.10
2019-03-23T11:58:58.067Z,16.20
2019-03-23T12:01:28.065Z,16.30
2019-03-23T12:03:58.306Z,16.60
2019-03-23T12:06:28.204Z,16.80
2019-03-23T12:08:58.285Z,17.00
2019-03-23T12:11:28.699Z,17.00
2019-03-23T12:13:58.512Z,17.20
2019-03-23T12:16:28.436Z,17.30
2019-03-23T12:18:58.418Z,17.40
2019-03-23T12:21:28.739Z,17.30
2019-03-23T12:23:58.863Z,17.50
2019-03-23T12:26:29.027Z,17.70
2019-03-23T12:28:59.314Z,17.90
2019-03-23T12:31:29.361Z,17.90
2019-03-23T12:33:59.634Z,18.20
2019-03-23T12:36:29.885Z,18.00
2019-03-23T12:38:59.964Z,18.20
2019-03-23T12:41:30.151Z,18.30
2019-03-23T12:44:00.606Z,18.10
2019-03-23T12:46:30.646Z,18.00
2019-03-23T12:49:00.764Z,18.10
2019-03-23T12:51:31.179Z,18.20
2019-03-23T12:54:03.963Z,18.30
2019-03-23T12:56:34.440Z,18.20
2019-03-23T12:59:04.971Z,18.20
2019-03-23T13:01:34.892Z,18.10
2019-03-23T13:04:05.020Z,18.00
2019-03-23T13:06:35.275Z,18.10
2019-03-23T13:09:06.620Z,18.10
2019-03-23T13:11:36.675Z,18.20
2019-03-23T13:14:06.594Z,18.40
2019-03-23T13:16:38.542Z,18.30
2019-03-23T13:19:08.891Z,18.30
2019-03-23T13:21:39.062Z,18.10
2019-03-23T13:24:09.093Z,17.90
2019-03-23T13:26:39.439Z,17.60
2019-03-23T13:29:09.414Z,17.30
2019-03-23T13:31:39.320Z,17.20
2019-03-23T13:34:09.285Z,17.20
2019-03-23T13:36:39.574Z,17.10
2019-03-23T13:39:09.717Z,17.10
2019-03-23T13:41:46.895Z,17.10
2019-03-23T13:44:17.189Z,17.10
2019-03-23T13:46:47.239Z,17.20
2019-03-23T13:49:17.705Z,17.30
2019-03-23T13:51:47.958Z,17.20
2019-03-23T13:54:17.896Z,17.10
2019-03-23T13:56:47.813Z,17.00
2019-03-23T13:59:17.787Z,16.90
2019-03-23T14:01:47.914Z,16.80
2019-03-23T14:04:17.954Z,16.90
2019-03-23T14:06:47.934Z,17.00
2019-03-23T14:09:18.013Z,16.90
2019-03-23T14:11:54.989Z,16.90
2019-03-23T14:14:20.148Z,16.90
2019-03-23T14:16:50.255Z,17.00
2019-03-23T14:19:20.628Z,16.90
2019-03-23T14:21:50.655Z,17.00
2019-03-23T14:24:20.635Z,17.10
2019-03-23T14:26:50.961Z,17.20
2019-03-23T14:29:20.870Z,17.20
2019-03-23T14:31:51.199Z,17.10
2019-03-23T14:34:21.250Z,17.10
2019-03-23T14:36:51.154Z,17.00
2019-03-23T14:39:21.191Z,17.10
2019-03-23T14:41:51.642Z,17.20
2019-03-23T14:44:21.614Z,17.20
2019-03-23T14:46:51.650Z,17.30
2019-03-23T14:49:21.639Z,17.30
2019-03-23T14:51:51.633Z,17.30
2019-03-23T14:54:21.786Z,17.40
2019-03-23T14:56:51.744Z,17.50
2019-03-23T14:59:21.790Z,17.40
2019-03-23T15:01:51.702Z,17.50
2019-03-23T15:04:21.752Z,17.40
2019-03-23T15:06:51.882Z,17.20
2019-03-23T15:09:21.815Z,17.20
2019-03-23T15:11:51.748Z,17.40
2019-03-23T15:14:21.729Z,17.60
2019-03-23T15:16:54.640Z,17.70
2019-03-23T15:19:24.803Z,17.90
2019-03-23T15:21:54.904Z,17.90
2019-03-23T15:24:24.924Z,17.80
2019-03-23T15:26:55.136Z,17.80
2019-03-23T15:29:25.392Z,17.70
2019-03-23T15:31:55.355Z,17.70
2019-03-23T15:34:25.909Z,17.80
2019-03-23T15:36:55.988Z,17.90
2019-03-23T15:39:26.489Z,17.90
2019-03-23T15:41:56.409Z,17.80
2019-03-23T15:44:26.578Z,17.90
2019-03-23T15:46:56.902Z,18.00
2019-03-23T15:49:27.013Z,18.20
2019-03-23T15:51:57.129Z,18.80
2019-03-23T15:54:27.597Z,19.40
2019-03-23T15:56:57.531Z,20.20
2019-03-23T15:59:29.044Z,20.80
2019-03-23T16:01:59.204Z,21.50
2019-03-23T16:04:29.382Z,21.80
2019-03-23T16:06:59.622Z,21.90
2019-03-23T16:09:29.660Z,21.90
2019-03-23T16:12:00.126Z,22.50
2019-03-23T16:14:30.081Z,22.40
2019-03-23T16:17:00.291Z,22.50
2019-03-23T16:19:30.442Z,22.40
2019-03-23T16:22:00.678Z,22.30
2019-03-23T16:24:30.639Z,22.40
2019-03-23T16:27:00.648Z,22.90
2019-03-23T16:29:30.762Z,22.70
2019-03-23T16:32:01.051Z,22.70
2019-03-23T16:34:31.534Z,22.40
2019-03-23T16:37:01.507Z,22.50
2019-03-23T16:39:31.582Z,22.60
2019-03-23T16:42:01.877Z,22.70
2019-03-23T16:44:32.262Z,22.20
2019-03-23T16:47:02.492Z,21.80
2019-03-23T16:49:32.443Z,20.60
2019-03-23T16:52:02.868Z,19.40
2019-03-23T16:54:33.010Z,18.70
2019-03-23T16:57:03.163Z,17.90
2019-03-23T16:59:33.299Z,17.10
2019-03-23T17:02:03.616Z,16.70
2019-03-23T17:04:33.733Z,16.20
2019-03-23T17:07:03.947Z,15.60
2019-03-23T17:09:34.315Z,15.00
2019-03-23T17:12:04.333Z,14.60
2019-03-23T17:14:34.629Z,14.30
2019-03-23T17:17:04.631Z,13.90
2019-03-23T17:19:34.651Z,13.50
2019-03-23T17:22:04.965Z,13.10
2019-03-23T17:24:35.172Z,12.80
2019-03-23T17:27:05.404Z,12.40
2019-03-23T17:29:35.577Z,12.00
2019-03-23T17:32:05.818Z,11.60
2019-03-23T17:34:36.276Z,11.20
2019-03-23T17:37:06.560Z,10.90
2019-03-23T17:39:36.870Z,10.60
2019-03-23T17:42:07.387Z,10.30
2019-03-23T17:44:37.510Z,10.00
2019-03-23T17:47:07.820Z,9.70
2019-03-23T17:49:38.014Z,9.50
2019-03-23T17:52:07.974Z,9.30
2019-03-23T17:54:38.296Z,9.10
2019-03-23T17:57:08.366Z,9.00
2019-03-23T17:59:38.627Z,8.80
2019-03-23T18:02:08.700Z,8.70
2019-03-23T18:04:39.107Z,8.60
2019-03-23T18:07:09.352Z,8.50
2019-03-23T18:09:39.322Z,8.30
2019-03-23T18:12:09.695Z,8.20
2019-03-23T18:14:39.913Z,8.00
2019-03-23T18:17:10.115Z,7.90
2019-03-23T18:19:40.169Z,7.80
2019-03-23T18:22:10.426Z,7.60
2019-03-23T18:24:40.376Z,7.40
2019-03-23T18:27:10.422Z,7.20
2019-03-23T18:29:40.588Z,7.10
2019-03-23T18:32:10.884Z,7.10
2019-03-23T18:34:40.967Z,7.10
2019-03-23T18:37:11.107Z,7.10
2019-03-23T18:39:41.495Z,7.00
2019-03-23T18:42:12.050Z,7.00
2019-03-23T18:44:42.346Z,6.90
2019-03-23T18:47:12.568Z,6.70
2019-03-23T18:49:42.663Z,6.50
2019-03-23T18:52:12.897Z,6.40
2019-03-23T18:54:43.107Z,6.20
2019-03-23T18:57:13.253Z,6.10
2019-03-23T18:59:43.467Z,6.00
2019-03-23T19:02:13.703Z,5.90
2019-03-23T19:04:44.009Z,5.80
2019-03-23T19:07:14.279Z,5.70
2019-03-23T19:09:45.039Z,5.70
2019-03-23T19:12:15.127Z,5.60
2019-03-23T19:14:45.155Z,5.50
2019-03-23T19:17:15.251Z,5.40
2019-03-23T19:19:45.523Z,5.40
2019-03-23T19:22:15.695Z,5.30
2019-03-23T19:24:45.791Z,5.20
2019-03-23T19:27:16.164Z,5.10
2019-03-23T19:29:46.174Z,5.00
2019-03-23T19:32:16.367Z,5.00
2019-03-23T19:34:46.670Z,4.90
2019-03-23T19:37:17.018Z,4.80
2019-03-23T19:39:47.605Z,4.70
2019-03-23T19:42:17.716Z,4.60
2019-03-23T19:44:47.773Z,4.50
2019-03-23T19:47:18.117Z,4.50
2019-03-23T19:49:48.302Z,4.40
2019-03-23T19:52:18.346Z,4.30
2019-03-23T19:54:48.683Z,4.20
2019-03-23T19:57:18.913Z,4.10
2019-03-23T19:59:48.997Z,4.10
2019-03-23T20:02:19.478Z,4.20
2019-03-23T20:04:49.921Z,4.20
2019-03-23T20:07:20.472Z,4.10
2019-03-23T20:09:51.059Z,4.10
2019-03-23T20:12:21.492Z,4.00
2019-03-23T20:14:51.682Z,4.00
2019-03-23T20:17:22.108Z,3.90
2019-03-23T20:19:53.479Z,3.80
2019-03-23T20:22:23.994Z,3.90
2019-03-23T20:24:54.472Z,3.80
2019-03-23T20:27:24.819Z,3.80
2019-03-23T20:29:54.993Z,3.60
2019-03-23T20:32:25.648Z,3.50
2019-03-23T20:34:56.056Z,3.60
2019-03-23T20:37:26.845Z,3.50
2019-03-23T20:39:57.583Z,3.40
2019-03-23T20:42:28.082Z,3.30
2019-03-23T20:44:58.339Z,3.30
2019-03-23T20:47:28.867Z,3.20
2019-03-23T20:50:00.015Z,3.20
2019-03-23T20:52:30.326Z,3.20
2019-03-23T20:55:00.605Z,3.10
2019-03-23T20:57:37.257Z,3.00
2019-03-23T21:00:03.305Z,3.10
2019-03-23T21:02:33.763Z,2.90
2019-03-23T21:05:03.941Z,2.90
2019-03-23T21:07:34.550Z,3.10
2019-03-23T21:10:04.875Z,3.00
2019-03-23T21:12:35.371Z,3.00
2019-03-23T21:15:07.139Z,3.00
2019-03-23T21:17:50.426Z,2.90
2019-03-23T21:20:10.183Z,2.70
2019-03-23T21:22:40.291Z,2.70
2019-03-23T21:25:11.087Z,2.60
2019-03-23T21:27:41.377Z,2.50
2019-03-23T21:30:13.945Z,2.50
2019-03-23T21:32:44.350Z,2.50
2019-03-23T21:35:15.956Z,2.40
2019-03-23T21:37:46.691Z,2.50
2019-03-23T21:40:16.958Z,2.40
2019-03-23T21:42:47.048Z,2.30
2019-03-23T21:45:17.293Z,2.40
2019-03-23T21:47:47.497Z,2.30
2019-03-23T21:50:17.743Z,2.30
2019-03-23T21:52:47.890Z,2.20
2019-03-23T21:55:17.915Z,2.30
2019-03-23T21:57:47.894Z,2.20
2019-03-23T22:00:29.981Z,2.20
2019-03-23T22:03:00.170Z,2.10
2019-03-23T22:05:30.212Z,2.10
2019-03-23T22:08:00.464Z,1.90
2019-03-23T22:10:30.703Z,1.90
2019-03-23T22:13:00.807Z,1.90
2019-03-23T22:15:33.133Z,1.80
2019-03-23T22:18:03.373Z,1.80
2019-03-23T22:20:33.690Z,1.80
2019-03-23T22:23:03.904Z,1.70
2019-03-23T22:25:33.995Z,1.80
2019-03-23T22:28:04.048Z,1.80
2019-03-23T22:30:34.320Z,1.70
2019-03-23T22:33:04.601Z,1.60
2019-03-23T22:35:34.615Z,1.60
2019-03-23T22:38:04.674Z,1.50
2019-03-23T22:40:35.082Z,1.40
2019-03-23T22:43:05.126Z,1.40
2019-03-23T22:45:35.914Z,1.40
2019-03-23T22:48:06.354Z,1.40
2019-03-23T22:50:36.698Z,1.50
2019-03-23T22:53:06.635Z,1.40
2019-03-23T22:55:36.746Z,1.40
2019-03-23T22:58:06.836Z,1.30
2019-03-23T23:00:48.043Z,1.30
2019-03-23T23:03:18.500Z,1.20
2019-03-23T23:05:48.491Z,1.10
2019-03-23T23:08:18.480Z,1.10
2019-03-23T23:10:48.604Z,1.10
2019-03-23T23:13:18.699Z,1.10
2019-03-23T23:15:48.911Z,1.10
2019-03-23T23:18:18.905Z,1.10
2019-03-23T23:20:48.805Z,1.10
2019-03-23T23:23:18.913Z,1.00
2019-03-23T23:25:48.973Z,1.00
2019-03-23T23:28:18.891Z,0.90
2019-03-23T23:30:48.873Z,0.80
2019-03-23T23:33:19.408Z,0.80
2019-03-23T23:35:49.992Z,0.80
2019-03-23T23:38:20.064Z,0.80
2019-03-23T23:40:50.225Z,0.90
2019-03-23T23:43:20.485Z,0.90
2019-03-23T23:45:50.421Z,0.90
2019-03-23T23:48:20.367Z,0.80
2019-03-23T23:50:50.288Z,0.70
2019-03-23T23:53:20.411Z,0.60
2019-03-23T23:55:50.529Z,0.60
2019-03-23T23:58:20.490Z,0.60
